createdAt,value
2018-11-01T00:00:02.489Z,17.10
2018-11-01T00:02:32.746Z,17.10
2018-11-01T00:05:03.863Z,17.10
2018-11-01T00:07:39.575Z,17.10
2018-11-01T00:10:09.862Z,17.10
2018-11-01T00:12:40.998Z,17.10
2018-11-01T00:15:12.886Z,17.10
2018-11-01T00:17:43.128Z,17.10
2018-11-01T00:20:14.230Z,17.00
2018-11-01T00:22:44.934Z,17.00
2018-11-01T00:25:15.594Z,17.00
2018-11-01T00:27:45.861Z,17.00
2018-11-01T00:30:16.119Z,17.00
2018-11-01T00:32:46.433Z,17.00
2018-11-01T00:35:16.743Z,17.00
2018-11-01T00:37:47.026Z,17.00
2018-11-01T00:40:17.350Z,17.00
2018-11-01T00:42:47.641Z,17.00
2018-11-01T00:45:17.952Z,17.00
2018-11-01T00:47:48.249Z,16.90
2018-11-01T00:50:18.566Z,16.90
2018-11-01T00:52:48.841Z,16.90
2018-11-01T00:55:19.138Z,16.90
2018-11-01T00:57:49.401Z,16.90
2018-11-01T01:00:19.695Z,16.90
2018-11-01T01:02:50.000Z,16.90
2018-11-01T01:05:20.264Z,16.90
2018-11-01T01:07:50.573Z,16.90
2018-11-01T01:10:20.866Z,16.80
2018-11-01T01:12:51.169Z,16.80
2018-11-01T01:15:21.478Z,16.80
2018-11-01T01:17:51.751Z,16.80
2018-11-01T01:20:22.052Z,16.70
2018-11-01T01:22:52.329Z,16.70
2018-11-01T01:25:22.643Z,16.70
2018-11-01T01:27:52.925Z,16.70
2018-11-01T01:30:23.214Z,16.70
2018-11-01T01:32:53.509Z,16.70
2018-11-01T01:35:23.759Z,16.70
2018-11-01T01:37:54.041Z,16.70
2018-11-01T01:40:26.586Z,16.70
2018-11-01T01:42:56.858Z,16.70
2018-11-01T01:45:27.139Z,16.60
2018-11-01T01:47:58.731Z,16.60
2018-11-01T01:50:29.032Z,16.70
2018-11-01T01:52:59.263Z,16.60
2018-11-01T01:55:29.517Z,16.70
2018-11-01T01:57:59.792Z,16.60
2018-11-01T02:00:30.042Z,16.60
2018-11-01T02:03:00.290Z,16.60
2018-11-01T02:05:30.538Z,16.60
2018-11-01T02:08:00.810Z,16.60
2018-11-01T02:10:31.075Z,16.50
2018-11-01T02:13:01.338Z,16.50
2018-11-01T02:15:31.690Z,16.50
2018-11-01T02:18:03.090Z,16.50
2018-11-01T02:20:33.334Z,16.50
2018-11-01T02:23:07.308Z,16.50
2018-11-01T02:25:37.557Z,16.50
2018-11-01T02:28:13.104Z,16.50
2018-11-01T02:30:43.374Z,16.50
2018-11-01T02:33:13.666Z,16.50
2018-11-01T02:35:43.902Z,16.40
2018-11-01T02:38:14.318Z,16.40
2018-11-01T02:40:44.467Z,16.40
2018-11-01T02:43:14.746Z,16.40
2018-11-01T02:45:46.298Z,16.40
2018-11-01T02:48:16.602Z,16.30
2018-11-01T02:50:49.311Z,16.30
2018-11-01T02:53:19.575Z,16.30
2018-11-01T02:55:49.839Z,16.30
2018-11-01T02:58:20.141Z,16.30
2018-11-01T03:00:50.402Z,16.30
2018-11-01T03:03:20.738Z,16.30
2018-11-01T03:05:50.991Z,16.30
2018-11-01T03:08:21.456Z,16.20
2018-11-01T03:10:51.702Z,16.20
2018-11-01T03:13:21.963Z,16.20
2018-11-01T03:15:52.214Z,16.20
2018-11-01T03:18:22.474Z,16.20
2018-11-01T03:20:52.725Z,16.20
2018-11-01T03:23:23.035Z,16.20
2018-11-01T03:25:53.294Z,16.10
2018-11-01T03:28:23.574Z,16.10
2018-11-01T03:30:53.826Z,16.10
2018-11-01T03:33:24.145Z,16.10
2018-11-01T03:35:54.403Z,16.10
2018-11-01T03:38:24.824Z,16.10
2018-11-01T03:40:55.035Z,16.10
2018-11-01T03:43:25.331Z,16.10
2018-11-01T03:45:55.588Z,16.10
2018-11-01T03:48:25.906Z,16.00
2018-11-01T03:50:56.212Z,16.00
2018-11-01T03:53:26.528Z,16.00
2018-11-01T03:55:56.812Z,16.00
2018-11-01T03:58:27.093Z,16.00
2018-11-01T04:00:57.415Z,16.00
2018-11-01T04:03:27.717Z,16.00
2018-11-01T04:05:57.978Z,16.00
2018-11-01T04:08:28.293Z,15.90
2018-11-01T04:10:58.570Z,15.90
2018-11-01T04:13:28.931Z,15.90
2018-11-01T04:15:59.178Z,15.90
2018-11-01T04:18:29.463Z,15.90
2018-11-01T04:20:59.778Z,15.80
2018-11-01T04:23:30.152Z,15.80
2018-11-01T04:26:00.350Z,15.80
2018-11-01T04:28:30.624Z,15.80
2018-11-01T04:31:01.006Z,15.80
2018-11-01T04:33:31.407Z,15.70
2018-11-01T04:36:01.632Z,15.70
2018-11-01T04:38:31.909Z,15.70
2018-11-01T04:41:02.222Z,15.70
2018-11-01T04:43:38.838Z,15.70
2018-11-01T04:46:09.137Z,15.60
2018-11-01T04:48:39.423Z,15.70
2018-11-01T04:51:09.705Z,15.60
2018-11-01T04:53:45.443Z,15.60
2018-11-01T04:56:15.711Z,15.60
2018-11-01T04:58:45.966Z,15.50
2018-11-01T05:01:20.338Z,15.50
2018-11-01T05:03:52.986Z,15.50
2018-11-01T05:06:25.422Z,15.50
2018-11-01T05:08:55.749Z,15.50
2018-11-01T05:11:26.014Z,15.50
2018-11-01T05:13:56.284Z,15.50
2018-11-01T05:16:26.607Z,15.50
2018-11-01T05:18:56.864Z,15.40
2018-11-01T05:21:27.143Z,15.40
2018-11-01T05:23:57.436Z,15.40
2018-11-01T05:26:27.733Z,15.50
2018-11-01T05:28:58.007Z,15.50
2018-11-01T05:31:28.525Z,15.50
2018-11-01T05:33:59.234Z,15.40
2018-11-01T05:36:29.545Z,15.40
2018-11-01T05:38:59.830Z,15.40
2018-11-01T05:41:30.125Z,15.40
2018-11-01T05:44:00.370Z,15.40
2018-11-01T05:46:30.779Z,15.40
2018-11-01T05:49:01.062Z,15.40
2018-11-01T05:51:31.368Z,15.40
2018-11-01T05:54:01.666Z,15.40
2018-11-01T05:56:31.945Z,15.40
2018-11-01T05:59:02.236Z,15.40
2018-11-01T06:01:34.929Z,15.40
2018-11-01T06:04:05.493Z,15.40
2018-11-01T06:06:35.796Z,15.40
2018-11-01T06:09:09.860Z,15.40
2018-11-01T06:11:40.162Z,15.40
2018-11-01T06:14:10.486Z,15.40
2018-11-01T06:16:40.814Z,15.40
2018-11-01T06:19:11.676Z,15.40
2018-11-01T06:21:42.081Z,15.40
2018-11-01T06:24:12.429Z,15.40
2018-11-01T06:26:42.761Z,15.40
2018-11-01T06:29:13.049Z,15.40
2018-11-01T06:31:43.384Z,15.40
2018-11-01T06:34:17.767Z,15.40
2018-11-01T06:36:48.074Z,15.40
2018-11-01T06:39:21.616Z,15.30
2018-11-01T06:41:52.926Z,15.40
2018-11-01T06:44:23.266Z,15.40
2018-11-01T06:46:53.506Z,15.40
2018-11-01T06:49:23.810Z,15.40
2018-11-01T06:51:54.119Z,15.40
2018-11-01T06:54:24.385Z,15.40
2018-11-01T06:56:54.715Z,15.40
2018-11-01T06:59:27.790Z,15.40
2018-11-01T07:01:58.006Z,15.40
2018-11-01T07:04:28.277Z,15.40
2018-11-01T07:06:58.594Z,15.40
2018-11-01T07:09:28.987Z,15.40
2018-11-01T07:11:59.305Z,15.40
2018-11-01T07:14:29.569Z,15.40
2018-11-01T07:16:59.983Z,15.40
2018-11-01T07:19:30.211Z,15.40
2018-11-01T07:22:00.543Z,15.40
2018-11-01T07:24:31.174Z,15.40
2018-11-01T07:27:01.484Z,15.40
2018-11-01T07:29:31.969Z,15.40
2018-11-01T07:32:02.308Z,15.40
2018-11-01T07:34:32.599Z,15.40
2018-11-01T07:37:02.939Z,15.40
2018-11-01T07:39:33.261Z,15.40
2018-11-01T07:42:03.576Z,15.40
2018-11-01T07:44:33.891Z,15.40
2018-11-01T07:47:04.168Z,15.40
2018-11-01T07:49:39.650Z,15.40
2018-11-01T07:52:09.983Z,15.40
2018-11-01T07:54:42.701Z,15.40
2018-11-01T07:57:13.026Z,15.40
2018-11-01T07:59:43.340Z,15.50
2018-11-01T08:02:13.615Z,15.50
2018-11-01T08:04:43.921Z,15.50
2018-11-01T08:07:14.234Z,15.50
2018-11-01T08:09:44.523Z,15.50
2018-11-01T08:12:14.782Z,15.60
2018-11-01T08:14:45.075Z,15.50
2018-11-01T08:17:15.343Z,15.60
2018-11-01T08:19:45.702Z,15.50
2018-11-01T08:22:15.894Z,15.50
2018-11-01T08:24:46.170Z,15.50
2018-11-01T08:27:16.451Z,15.50
2018-11-01T08:29:46.766Z,15.50
2018-11-01T08:32:17.033Z,15.50
2018-11-01T08:34:47.282Z,15.50
2018-11-01T08:37:17.522Z,15.60
2018-11-01T08:39:47.779Z,15.60
2018-11-01T08:42:18.018Z,15.60
2018-11-01T08:44:48.273Z,15.60
2018-11-01T08:47:18.550Z,15.70
2018-11-01T08:49:48.879Z,15.70
2018-11-01T08:52:19.121Z,15.70
2018-11-01T08:54:49.377Z,15.70
2018-11-01T08:57:19.615Z,15.70
2018-11-01T08:59:49.878Z,15.70
2018-11-01T09:02:20.118Z,15.70
2018-11-01T09:04:50.362Z,15.70
2018-11-01T09:07:20.600Z,15.80
2018-11-01T09:09:51.049Z,15.80
2018-11-01T09:12:21.274Z,15.80
2018-11-01T09:14:51.574Z,15.80
2018-11-01T09:17:21.810Z,15.80
2018-11-01T09:19:52.083Z,15.90
2018-11-01T09:22:22.777Z,15.90
2018-11-01T09:24:53.487Z,15.90
2018-11-01T09:27:23.733Z,15.90
2018-11-01T09:29:54.133Z,16.00
2018-11-01T09:32:24.562Z,16.00
2018-11-01T09:34:54.904Z,16.00
2018-11-01T09:37:25.136Z,16.00
2018-11-01T09:39:55.378Z,16.00
2018-11-01T09:42:25.701Z,16.10
2018-11-01T09:44:56.001Z,16.10
2018-11-01T09:47:26.712Z,16.10
2018-11-01T09:49:56.500Z,16.10
2018-11-01T09:52:26.738Z,16.10
2018-11-01T09:54:56.985Z,16.20
2018-11-01T09:57:27.442Z,16.20
2018-11-01T09:59:57.692Z,16.20
2018-11-01T10:02:27.926Z,16.20
2018-11-01T10:04:58.301Z,16.30
2018-11-01T10:07:28.540Z,16.30
2018-11-01T10:09:58.817Z,16.30
2018-11-01T10:12:29.122Z,16.30
2018-11-01T10:14:59.454Z,16.30
2018-11-01T10:17:29.992Z,16.30
2018-11-01T10:19:59.941Z,16.40
2018-11-01T10:22:30.284Z,16.40
2018-11-01T10:25:00.589Z,16.40
2018-11-01T10:27:31.023Z,16.40
2018-11-01T10:30:01.161Z,16.50
2018-11-01T10:32:31.442Z,16.50
2018-11-01T10:35:01.684Z,16.50
2018-11-01T10:37:31.942Z,16.50
2018-11-01T10:40:02.172Z,16.50
2018-11-01T10:42:32.443Z,16.60
2018-11-01T10:45:02.702Z,16.60
2018-11-01T10:47:32.985Z,16.60
2018-11-01T10:50:03.202Z,16.60
2018-11-01T10:52:33.466Z,16.70
2018-11-01T10:55:03.706Z,16.70
2018-11-01T10:57:33.953Z,16.70
2018-11-01T11:00:04.561Z,16.80
2018-11-01T11:02:34.822Z,16.80
2018-11-01T11:05:05.292Z,16.80
2018-11-01T11:07:35.550Z,16.80
2018-11-01T11:10:07.362Z,16.90
2018-11-01T11:12:37.613Z,16.90
2018-11-01T11:15:08.617Z,16.90
2018-11-01T11:17:39.374Z,16.90
2018-11-01T11:20:10.907Z,16.90
2018-11-01T11:22:41.173Z,17.00
2018-11-01T11:25:12.327Z,17.00
2018-11-01T11:27:42.526Z,17.00
2018-11-01T11:30:13.442Z,17.00
2018-11-01T11:32:43.649Z,17.00
2018-11-01T11:35:13.916Z,17.00
2018-11-01T11:37:44.221Z,17.10
2018-11-01T11:40:14.477Z,17.10
2018-11-01T11:42:44.758Z,17.10
2018-11-01T11:45:15.023Z,17.10
2018-11-01T11:47:45.306Z,17.10
2018-11-01T11:50:15.581Z,17.10
2018-11-01T11:52:46.387Z,17.20
2018-11-01T11:55:16.662Z,17.20
2018-11-01T11:57:46.950Z,17.20
2018-11-01T12:00:17.209Z,17.20
2018-11-01T12:02:47.579Z,17.20
2018-11-01T12:05:17.882Z,17.20
2018-11-01T12:07:48.143Z,17.20
2018-11-01T12:10:18.420Z,17.20
2018-11-01T12:12:48.703Z,17.20
2018-11-01T12:15:19.032Z,17.30
2018-11-01T12:17:49.311Z,17.30
2018-11-01T12:20:19.585Z,17.30
2018-11-01T12:22:49.862Z,17.30
2018-11-01T12:25:20.130Z,17.30
2018-11-01T12:27:50.410Z,17.30
2018-11-01T12:30:20.710Z,17.30
2018-11-01T12:32:50.991Z,17.30
2018-11-01T12:35:21.261Z,17.30
2018-11-01T12:37:51.494Z,17.30
2018-11-01T12:40:21.743Z,17.30
2018-11-01T12:42:51.994Z,17.30
2018-11-01T12:45:22.226Z,17.30
2018-11-01T12:47:52.486Z,17.30
2018-11-01T12:50:22.785Z,17.30
2018-11-01T12:52:53.009Z,17.30
2018-11-01T12:55:23.269Z,17.30
2018-11-01T12:57:53.706Z,17.30
2018-11-01T13:00:23.957Z,17.30
2018-11-01T13:02:54.333Z,17.30
2018-11-01T13:05:24.569Z,17.30
2018-11-01T13:07:54.819Z,17.30
2018-11-01T13:10:25.135Z,17.30
2018-11-01T13:12:55.314Z,17.30
2018-11-01T13:15:25.573Z,17.30
2018-11-01T13:17:55.923Z,17.30
2018-11-01T13:20:26.069Z,17.30
2018-11-01T13:22:56.311Z,17.30
2018-11-01T13:25:26.582Z,17.30
2018-11-01T13:27:56.821Z,17.30
2018-11-01T13:30:27.072Z,17.30
2018-11-01T13:32:57.359Z,17.40
2018-11-01T13:35:27.689Z,17.40
2018-11-01T13:37:57.921Z,17.40
2018-11-01T13:40:28.430Z,17.40
2018-11-01T13:42:59.193Z,17.40
2018-11-01T13:45:29.471Z,17.40
2018-11-01T13:47:59.822Z,17.40
2018-11-01T13:50:30.030Z,17.40
2018-11-01T13:53:01.641Z,17.50
2018-11-01T13:55:31.927Z,17.50
2018-11-01T13:58:02.197Z,17.50
2018-11-01T14:00:32.482Z,17.50
2018-11-01T14:03:02.755Z,17.50
2018-11-01T14:05:33.069Z,17.50
2018-11-01T14:08:03.334Z,17.50
2018-11-01T14:10:33.708Z,17.50
2018-11-01T14:13:04.055Z,17.60
2018-11-01T14:15:34.312Z,17.60
2018-11-01T14:18:04.825Z,17.60
2018-11-01T14:20:35.113Z,17.60
2018-11-01T14:23:05.786Z,17.60
2018-11-01T14:25:36.224Z,17.60
2018-11-01T14:28:06.729Z,17.60
2018-11-01T14:30:37.022Z,17.60
2018-11-01T14:33:07.342Z,17.60
2018-11-01T14:35:37.657Z,17.60
2018-11-01T14:38:07.978Z,17.60
2018-11-01T14:40:38.313Z,17.60
2018-11-01T14:43:08.639Z,17.60
2018-11-01T14:45:38.845Z,17.60
2018-11-01T14:48:09.224Z,17.60
2018-11-01T14:50:39.467Z,17.60
2018-11-01T14:53:10.290Z,17.60
2018-11-01T14:55:41.237Z,17.60
2018-11-01T14:58:12.134Z,17.60
2018-11-01T15:00:40.536Z,17.60
2018-11-01T15:03:11.414Z,17.60
2018-11-01T15:05:41.771Z,17.60
2018-11-01T15:08:12.000Z,17.60
2018-11-01T15:10:42.371Z,17.60
2018-11-01T15:13:13.503Z,17.60
2018-11-01T15:15:43.722Z,17.60
2018-11-01T15:18:14.062Z,17.60
2018-11-01T15:20:44.373Z,17.60
2018-11-01T15:23:14.716Z,17.60
2018-11-01T15:25:45.045Z,17.60
2018-11-01T15:28:15.422Z,17.60
2018-11-01T15:30:45.819Z,17.60
2018-11-01T15:33:16.813Z,17.60
2018-11-01T15:35:47.010Z,17.60
2018-11-01T15:38:17.363Z,17.60
2018-11-01T15:40:51.834Z,17.50
2018-11-01T15:43:22.196Z,17.60
2018-11-01T15:45:52.504Z,17.60
2018-11-01T15:48:22.890Z,17.60
2018-11-01T15:50:53.275Z,17.50
2018-11-01T15:53:23.750Z,17.50
2018-11-01T15:55:54.153Z,17.50
2018-11-01T15:58:24.851Z,17.50
2018-11-01T16:00:56.327Z,17.50
2018-11-01T16:03:26.819Z,17.40
2018-11-01T16:05:57.146Z,17.40
2018-11-01T16:08:27.499Z,17.40
2018-11-01T16:10:57.852Z,17.40
2018-11-01T16:13:28.254Z,17.40
2018-11-01T16:15:58.599Z,17.30
2018-11-01T16:18:29.749Z,17.30
2018-11-01T16:21:00.145Z,17.30
2018-11-01T16:23:30.510Z,17.30
2018-11-01T16:26:00.894Z,17.30
2018-11-01T16:28:31.173Z,17.20
2018-11-01T16:31:01.620Z,17.20
2018-11-01T16:33:32.024Z,17.20
2018-11-01T16:36:02.413Z,17.20
2018-11-01T16:38:32.820Z,17.10
2018-11-01T16:41:03.188Z,17.10
2018-11-01T16:43:33.685Z,17.10
2018-11-01T16:46:04.133Z,17.10
2018-11-01T16:48:34.446Z,17.10
2018-11-01T16:51:05.239Z,17.10
2018-11-01T16:53:35.504Z,17.00
2018-11-01T16:56:06.734Z,17.00
2018-11-01T16:58:37.204Z,17.00
2018-11-01T17:01:07.622Z,17.00
2018-11-01T17:03:38.163Z,16.90
2018-11-01T17:06:08.633Z,16.90
2018-11-01T17:08:39.052Z,16.90
2018-11-01T17:11:09.278Z,16.90
2018-11-01T17:13:39.537Z,16.90
2018-11-01T17:16:09.834Z,16.80
2018-11-01T17:18:40.126Z,16.80
2018-11-01T17:21:10.406Z,16.80
2018-11-01T17:23:40.750Z,16.80
2018-11-01T17:26:11.022Z,16.70
2018-11-01T17:28:41.318Z,16.70
2018-11-01T17:31:11.682Z,16.70
2018-11-01T17:33:42.112Z,16.70
2018-11-01T17:36:12.338Z,16.60
2018-11-01T17:38:42.602Z,16.60
2018-11-01T17:41:12.853Z,16.60
2018-11-01T17:43:43.129Z,16.60
2018-11-01T17:46:13.476Z,16.60
2018-11-01T17:48:43.641Z,16.50
2018-11-01T17:51:13.908Z,16.50
2018-11-01T17:53:44.137Z,16.50
2018-11-01T17:56:14.366Z,16.50
2018-11-01T17:58:44.622Z,16.40
2018-11-01T18:01:14.866Z,16.40
2018-11-01T18:03:45.143Z,16.40
2018-11-01T18:06:15.385Z,16.40
2018-11-01T18:08:45.717Z,16.40
2018-11-01T18:11:15.931Z,16.40
2018-11-01T18:13:46.744Z,16.40
2018-11-01T18:16:17.019Z,16.40
2018-11-01T18:18:47.277Z,16.30
2018-11-01T18:21:17.521Z,16.30
2018-11-01T18:23:48.374Z,16.30
2018-11-01T18:26:18.622Z,16.30
2018-11-01T18:28:48.924Z,16.30
2018-11-01T18:31:19.199Z,16.30
2018-11-01T18:33:49.503Z,16.30
2018-11-01T18:36:19.747Z,16.20
2018-11-01T18:38:50.035Z,16.20
2018-11-01T18:41:20.329Z,16.20
2018-11-01T18:43:50.816Z,16.20
2018-11-01T18:46:21.068Z,16.20
2018-11-01T18:48:51.373Z,16.20
2018-11-01T18:51:21.611Z,16.20
2018-11-01T18:53:52.013Z,16.20
2018-11-01T18:56:22.185Z,16.20
2018-11-01T18:58:52.462Z,16.20
2018-11-01T19:01:22.750Z,16.20
2018-11-01T19:03:53.020Z,16.20
2018-11-01T19:06:23.261Z,16.20
2018-11-01T19:08:53.557Z,16.20
2018-11-01T19:11:23.854Z,16.20
2018-11-01T19:13:55.273Z,16.20
2018-11-01T19:16:25.423Z,16.20
2018-11-01T19:18:55.685Z,16.20
2018-11-01T19:21:25.992Z,16.20
2018-11-01T19:23:56.421Z,16.20
2018-11-01T19:26:26.808Z,16.10
2018-11-01T19:28:57.944Z,16.10
2018-11-01T19:31:28.231Z,16.10
2018-11-01T19:33:58.741Z,16.10
2018-11-01T19:36:29.162Z,16.10
2018-11-01T19:38:59.713Z,16.10
2018-11-01T19:41:29.976Z,16.10
2018-11-01T19:44:00.283Z,16.10
2018-11-01T19:46:30.530Z,16.10
2018-11-01T19:49:00.808Z,16.10
2018-11-01T19:51:31.058Z,16.10
2018-11-01T19:54:01.374Z,16.10
2018-11-01T19:56:31.646Z,16.20
2018-11-01T19:59:01.911Z,16.20
2018-11-01T20:01:32.198Z,16.20
2018-11-01T20:04:02.518Z,16.20
2018-11-01T20:06:32.771Z,16.20
2018-11-01T20:09:03.100Z,16.20
2018-11-01T20:11:33.343Z,16.20
2018-11-01T20:14:03.581Z,16.20
2018-11-01T20:16:33.844Z,16.20
2018-11-01T20:19:04.174Z,16.20
2018-11-01T20:21:34.555Z,16.20
2018-11-01T20:24:04.768Z,16.20
2018-11-01T20:26:35.050Z,16.20
2018-11-01T20:29:05.712Z,16.30
2018-11-01T20:31:36.095Z,16.30
2018-11-01T20:34:06.387Z,16.30
2018-11-01T20:36:36.687Z,16.30
2018-11-01T20:39:11.399Z,16.40
2018-11-01T20:41:41.931Z,16.30
2018-11-01T20:44:12.860Z,16.40
2018-11-01T20:46:43.151Z,16.40
2018-11-01T20:49:13.602Z,16.40
2018-11-01T20:51:43.898Z,16.40
2018-11-01T20:54:14.185Z,16.40
2018-11-01T20:56:44.500Z,16.50
2018-11-01T20:59:14.766Z,16.50
2018-11-01T21:01:45.694Z,16.50
2018-11-01T21:04:16.038Z,16.50
2018-11-01T21:06:46.331Z,16.60
2018-11-01T21:09:16.579Z,16.60
2018-11-01T21:11:47.095Z,16.60
2018-11-01T21:14:17.138Z,16.60
2018-11-01T21:16:47.513Z,16.60
2018-11-01T21:19:17.690Z,16.60
2018-11-01T21:21:47.977Z,16.60
2018-11-01T21:24:18.278Z,16.70
2018-11-01T21:26:48.575Z,16.70
2018-11-01T21:29:18.912Z,16.70
2018-11-01T21:31:49.159Z,16.70
2018-11-01T21:34:19.432Z,16.80
2018-11-01T21:36:49.721Z,16.80
2018-11-01T21:39:19.990Z,16.80
2018-11-01T21:41:50.296Z,16.80
2018-11-01T21:44:20.561Z,16.90
2018-11-01T21:46:50.857Z,16.90
2018-11-01T21:49:21.222Z,16.90
2018-11-01T21:51:51.511Z,16.90
2018-11-01T21:54:21.854Z,16.90
2018-11-01T21:56:52.157Z,16.90
2018-11-01T21:59:22.454Z,16.90
2018-11-01T22:01:52.790Z,16.90
2018-11-01T22:04:23.050Z,17.00
2018-11-01T22:06:53.409Z,17.00
2018-11-01T22:09:23.726Z,17.00
2018-11-01T22:11:54.014Z,17.00
2018-11-01T22:14:24.307Z,17.00
2018-11-01T22:16:54.798Z,17.10
2018-11-01T22:19:25.054Z,17.10
2018-11-01T22:21:55.393Z,17.10
2018-11-01T22:24:25.665Z,17.00
2018-11-01T22:26:55.955Z,17.00
2018-11-01T22:29:26.227Z,17.00
2018-11-01T22:31:56.535Z,17.00
2018-11-01T22:34:26.822Z,17.00
2018-11-01T22:36:57.102Z,17.00
2018-11-01T22:39:27.441Z,17.00
2018-11-01T22:41:57.711Z,17.00
2018-11-01T22:44:28.004Z,17.00
2018-11-01T22:46:58.387Z,17.00
2018-11-01T22:49:28.690Z,17.00
2018-11-01T22:51:58.990Z,17.00
2018-11-01T22:54:29.321Z,17.00
2018-11-01T22:56:59.638Z,17.00
2018-11-01T22:59:29.922Z,17.00
2018-11-01T23:02:00.315Z,17.00
2018-11-01T23:04:30.609Z,17.00
2018-11-01T23:07:00.943Z,17.00
2018-11-01T23:09:31.247Z,17.00
2018-11-01T23:12:01.522Z,17.10
2018-11-01T23:14:31.809Z,17.10
2018-11-01T23:17:02.094Z,17.10
2018-11-01T23:19:32.378Z,17.10
2018-11-01T23:22:02.667Z,17.10
2018-11-01T23:24:33.062Z,17.10
2018-11-01T23:27:03.362Z,17.10
2018-11-01T23:29:33.646Z,17.10
2018-11-01T23:32:03.934Z,17.10
2018-11-01T23:34:34.261Z,17.10
2018-11-01T23:37:09.593Z,17.10
2018-11-01T23:39:45.111Z,17.10
2018-11-01T23:42:20.630Z,17.10
2018-11-01T23:44:56.303Z,17.10
2018-11-01T23:47:31.986Z,17.10
2018-11-01T23:50:07.155Z,17.10
2018-11-01T23:52:38.909Z,17.10
2018-11-01T23:55:09.193Z,17.10
2018-11-01T23:57:39.490Z,17.10
